Terminal Aerodrome Forecast
Issued by NWS Indianapolis, IN

Home | Current Version | Previous Version | Text Only | Print | Product List | Glossary On
Versions: 1 2 3 4 5 6 7 8 9 10 11 12 13 14 15 16 17 18 19 20 21 22 23 24 25 26 27 28 29 30
000
FTUS43 KIND 280200 AAA
TAFIND
TAF AMD
KIND 280225Z 2802/2906 29009KT P6SM BKN025 OVC040
      TEMPO 2802/2803 4SM -SN
     FM280300 29008KT P6SM SCT025 OVC040
      TEMPO 2803/2807 BKN025 OVC040
     FM280700 29005KT P6SM SCT080 SCT250
     FM281000 20004KT P6SM BKN080
     FM281500 18011KT P6SM SCT080 BKN250=

USA.gov is the U.S. government's official web portal to all federal, state and local government web resources and services.